createdAt,value
2018-11-28T00:01:07.909Z,157.12
2018-11-28T00:03:36.228Z,101.72
2018-11-28T00:06:04.551Z,219.30
2018-11-28T00:08:32.919Z,129.25
2018-11-28T00:11:01.036Z,140.18
2018-11-28T00:13:29.204Z,199.97
2018-11-28T00:15:57.528Z,138.88
2018-11-28T00:18:25.928Z,108.85
2018-11-28T00:20:54.249Z,134.87
2018-11-28T00:23:22.785Z,214.25
2018-11-28T00:25:51.108Z,234.70
2018-11-28T00:28:19.447Z,292.02
2018-11-28T00:30:47.813Z,170.53
2018-11-28T00:33:16.301Z,165.15
2018-11-28T00:35:44.808Z,125.53
2018-11-28T00:38:13.133Z,120.10
2018-11-28T00:40:41.529Z,74.75
2018-11-28T00:43:10.029Z,78.40
2018-11-28T00:45:38.290Z,244.60
2018-11-28T00:48:06.896Z,85.30
2018-11-28T00:50:35.201Z,77.22
2018-11-28T00:53:03.552Z,138.50
2018-11-28T00:55:31.947Z,43.33
2018-11-28T00:58:00.227Z,32.50
2018-11-28T01:00:28.472Z,40.20
2018-11-28T01:02:56.730Z,37.58
2018-11-28T01:05:25.028Z,41.42
2018-11-28T01:07:53.455Z,60.90
2018-11-28T01:10:22.817Z,60.08
2018-11-28T01:12:51.789Z,109.25
2018-11-28T01:15:20.210Z,80.22
2018-11-28T01:17:48.485Z,191.43
2018-11-28T01:20:17.843Z,68.12
2018-11-28T01:22:46.288Z,105.10
2018-11-28T01:25:15.608Z,121.75
2018-11-28T01:27:43.970Z,419.52
2018-11-28T01:30:15.069Z,71.75
2018-11-28T01:32:43.615Z,97.55
2018-11-28T01:35:13.760Z,219.20
2018-11-28T01:37:42.445Z,185.70
2018-11-28T01:40:12.555Z,93.78
2018-11-28T01:42:40.891Z,155.35
2018-11-28T01:45:10.712Z,191.05
2018-11-28T01:47:39.070Z,119.93
2018-11-28T01:50:10.726Z,208.82
2018-11-28T01:52:39.080Z,133.63
2018-11-28T01:55:09.781Z,480.22
2018-11-28T01:57:38.053Z,148.22
2018-11-28T02:00:15.310Z,142.30
2018-11-28T02:02:43.549Z,123.33
2018-11-28T02:05:12.342Z,135.97
2018-11-28T02:07:40.627Z,182.47
2018-11-28T02:10:13.613Z,198.80
2018-11-28T02:12:41.909Z,150.20
2018-11-28T02:15:13.415Z,94.37
2018-11-28T02:17:41.654Z,114.28
2018-11-28T02:20:13.037Z,116.82
2018-11-28T02:22:41.372Z,103.10
2018-11-28T02:25:10.043Z,238.12
2018-11-28T02:27:38.317Z,139.85
2018-11-28T02:30:17.942Z,139.82
2018-11-28T02:32:46.873Z,88.20
2018-11-28T02:35:15.141Z,187.37
2018-11-28T02:37:43.439Z,112.45
2018-11-28T02:40:13.675Z,92.00
2018-11-28T02:42:41.929Z,77.53
2018-11-28T02:45:14.329Z,86.47
2018-11-28T02:47:42.568Z,135.82
2018-11-28T02:50:10.800Z,131.85
2018-11-28T02:52:39.047Z,122.05
2018-11-28T02:55:10.469Z,246.22
2018-11-28T02:57:39.063Z,227.57
2018-11-28T03:00:10.205Z,210.15
2018-11-28T03:02:38.498Z,110.75
2018-11-28T03:05:08.452Z,165.52
2018-11-28T03:07:36.850Z,79.58
2018-11-28T03:10:08.098Z,100.92
2018-11-28T03:12:36.503Z,188.85
2018-11-28T03:15:05.862Z,159.60
2018-11-28T03:17:34.127Z,195.85
2018-11-28T03:20:02.391Z,70.78
2018-11-28T03:22:30.669Z,58.75
2018-11-28T03:24:58.966Z,117.80
2018-11-28T03:27:27.213Z,67.53
2018-11-28T03:29:55.567Z,137.25
2018-11-28T03:32:23.858Z,68.72
2018-11-28T03:34:52.181Z,127.17
2018-11-28T03:37:20.471Z,61.70
2018-11-28T03:39:48.745Z,156.25
2018-11-28T03:42:17.008Z,129.18
2018-11-28T03:44:45.285Z,47.78
2018-11-28T03:47:13.733Z,63.90
2018-11-28T03:49:42.065Z,257.50
2018-11-28T03:52:10.307Z,103.00
2018-11-28T03:54:38.649Z,67.85
2018-11-28T03:57:06.936Z,63.98
2018-11-28T03:59:35.236Z,73.30
2018-11-28T04:02:03.525Z,106.67
2018-11-28T04:04:31.759Z,199.55
2018-11-28T04:07:00.089Z,188.52
2018-11-28T04:09:28.388Z,235.20
2018-11-28T04:11:56.732Z,89.70
2018-11-28T04:14:24.993Z,68.78
2018-11-28T04:16:53.261Z,184.18
2018-11-28T04:19:21.405Z,87.80
2018-11-28T04:21:49.650Z,63.60
2018-11-28T04:24:17.894Z,83.52
2018-11-28T04:26:46.160Z,24.12
2018-11-28T04:29:14.543Z,59.48
2018-11-28T04:31:42.831Z,34.30
2018-11-28T04:34:11.114Z,24.52
2018-11-28T04:36:39.382Z,74.70
2018-11-28T04:39:08.578Z,108.32
2018-11-28T04:41:36.834Z,79.22
2018-11-28T04:44:04.937Z,246.50
2018-11-28T04:46:33.242Z,208.70
2018-11-28T04:49:01.486Z,106.83
2018-11-28T04:51:29.731Z,97.78
2018-11-28T04:53:57.979Z,209.03
2018-11-28T04:56:26.262Z,149.25
2018-11-28T04:58:54.558Z,210.50
2018-11-28T05:01:22.890Z,124.82
2018-11-28T05:03:51.236Z,41.00
2018-11-28T05:07:32.248Z,90.90
2018-11-28T05:10:00.442Z,208.40
2018-11-28T05:12:28.719Z,46.45
2018-11-28T05:14:56.965Z,102.75
2018-11-28T05:17:25.281Z,126.00
2018-11-28T05:19:53.565Z,65.62
2018-11-28T05:22:21.815Z,80.50
2018-11-28T05:24:50.102Z,110.48
2018-11-28T05:27:18.485Z,102.10
2018-11-28T05:29:46.764Z,40.85
2018-11-28T05:32:15.025Z,88.10
2018-11-28T05:34:43.358Z,22.95
2018-11-28T05:37:11.681Z,116.35
2018-11-28T05:39:40.015Z,248.22
2018-11-28T05:42:08.247Z,91.05
2018-11-28T05:44:36.590Z,183.50
2018-11-28T05:47:04.857Z,76.47
2018-11-28T05:49:33.140Z,142.32
2018-11-28T05:52:01.439Z,148.70
2018-11-28T05:54:29.707Z,166.97
2018-11-28T05:56:57.992Z,30.60
2018-11-28T05:59:27.554Z,93.55
2018-11-28T06:01:54.574Z,230.40
2018-11-28T06:04:22.809Z,35.25
2018-11-28T06:06:50.805Z,118.17
2018-11-28T06:09:18.838Z,71.82
2018-11-28T06:11:47.149Z,198.75
2018-11-28T06:14:15.371Z,83.60
2018-11-28T06:16:43.599Z,36.20
2018-11-28T06:19:11.842Z,35.85
2018-11-28T06:21:40.083Z,28.57
2018-11-28T06:24:08.332Z,37.93
2018-11-28T06:26:36.664Z,31.73
2018-11-28T06:29:05.048Z,27.80
2018-11-28T06:31:33.310Z,26.25
2018-11-28T06:34:01.635Z,26.30
2018-11-28T06:36:29.972Z,36.70
2018-11-28T06:38:58.361Z,59.25
2018-11-28T06:41:26.814Z,57.43
2018-11-28T06:43:55.271Z,39.95
2018-11-28T06:46:23.546Z,49.08
2018-11-28T06:48:51.913Z,30.57
2018-11-28T06:51:20.170Z,32.80
2018-11-28T06:53:49.513Z,34.45
2018-11-28T06:56:17.840Z,41.20
2018-11-28T06:58:46.246Z,66.87
2018-11-28T07:01:14.330Z,23.38
2018-11-28T07:03:42.421Z,27.45
2018-11-28T07:06:10.865Z,24.02
2018-11-28T07:08:39.056Z,28.98
2018-11-28T07:11:07.093Z,29.90
2018-11-28T07:13:35.400Z,23.15
2018-11-28T07:16:03.648Z,23.45
2018-11-28T07:18:37.103Z,23.18
2018-11-28T07:21:05.313Z,22.67
2018-11-28T07:23:33.495Z,16.50
2018-11-28T07:26:01.765Z,22.93
2018-11-28T07:28:29.962Z,19.77
2018-11-28T07:30:58.196Z,20.27
2018-11-28T07:33:26.423Z,18.37
2018-11-28T07:35:54.778Z,16.30
2018-11-28T07:38:23.032Z,35.45
2018-11-28T07:40:51.439Z,68.42
2018-11-28T07:43:19.821Z,66.65
2018-11-28T07:45:49.394Z,22.37
2018-11-28T07:48:17.643Z,16.65
2018-11-28T07:50:45.931Z,16.97
2018-11-28T07:53:14.435Z,17.42
2018-11-28T07:55:42.824Z,33.05
2018-11-28T07:58:11.052Z,26.40
2018-11-28T08:00:39.234Z,16.02
2018-11-28T08:03:08.682Z,24.43
2018-11-28T08:05:37.235Z,20.15
2018-11-28T08:08:07.116Z,18.50
2018-11-28T08:10:35.385Z,20.80
2018-11-28T08:13:03.422Z,18.82
2018-11-28T08:15:31.602Z,18.32
2018-11-28T08:17:59.857Z,16.80
2018-11-28T08:20:28.110Z,30.48
2018-11-28T08:22:56.473Z,22.60
2018-11-28T08:25:27.683Z,28.35
2018-11-28T08:27:53.012Z,16.60
2018-11-28T08:30:22.438Z,20.55
2018-11-28T08:32:50.770Z,23.62
2018-11-28T08:35:19.066Z,14.15
2018-11-28T08:37:47.394Z,12.98
2018-11-28T08:40:17.906Z,30.97
2018-11-28T08:42:46.139Z,17.82
2018-11-28T08:45:16.273Z,19.65
2018-11-28T08:47:45.488Z,19.00
2018-11-28T08:50:17.011Z,18.80
2018-11-28T08:52:45.365Z,18.10
2018-11-28T08:55:13.859Z,16.48
2018-11-28T08:57:42.209Z,16.75
2018-11-28T09:00:15.634Z,14.90
2018-11-28T09:02:52.676Z,15.28
2018-11-28T09:05:20.893Z,13.40
2018-11-28T09:07:49.182Z,13.68
2018-11-28T09:10:18.211Z,11.63
2018-11-28T09:12:46.902Z,13.90
2018-11-28T09:15:16.268Z,12.55
2018-11-28T09:17:44.268Z,13.60
2018-11-28T09:20:14.138Z,11.05
2018-11-28T09:22:42.461Z,11.65
2018-11-28T09:25:12.729Z,11.03
2018-11-28T09:27:41.058Z,10.50
2018-11-28T09:30:14.856Z,11.45
2018-11-28T09:32:43.115Z,13.17
2018-11-28T09:35:12.034Z,13.93
2018-11-28T09:37:45.435Z,10.30
2018-11-28T09:40:15.529Z,9.43
2018-11-28T09:42:43.846Z,10.13
2018-11-28T09:45:15.237Z,16.13
2018-11-28T09:47:43.572Z,13.03
2018-11-28T09:50:12.293Z,10.97
2018-11-28T09:52:40.706Z,11.13
2018-11-28T09:55:13.323Z,8.67
2018-11-28T09:57:41.620Z,12.90
2018-11-28T10:00:14.111Z,7.57
2018-11-28T10:02:42.526Z,8.93
2018-11-28T10:05:12.580Z,8.07
2018-11-28T10:07:41.035Z,17.50
2018-11-28T10:10:11.467Z,6.53
2018-11-28T10:12:39.889Z,9.80
2018-11-28T10:15:12.985Z,7.40
2018-11-28T10:17:41.435Z,7.70
2018-11-28T10:20:11.017Z,8.20
2018-11-28T10:22:39.670Z,9.37
2018-11-28T10:25:09.976Z,7.23
2018-11-28T10:27:38.382Z,12.00
2018-11-28T10:30:12.639Z,10.27
2018-11-28T10:32:41.103Z,11.17
2018-11-28T10:35:09.536Z,9.10
2018-11-28T10:37:37.694Z,16.57
2018-11-28T10:40:23.580Z,10.37
2018-11-28T10:42:59.778Z,43.33
2018-11-28T10:45:28.327Z,35.57
2018-11-28T10:47:56.392Z,21.20
2018-11-28T10:50:24.741Z,13.50
2018-11-28T10:52:53.121Z,18.57
2018-11-28T10:55:21.640Z,34.40
2018-11-28T10:57:50.021Z,9.00
2018-11-28T11:00:27.480Z,11.57
2018-11-28T11:03:01.308Z,14.70
2018-11-28T11:05:35.188Z,7.87
2018-11-28T11:08:08.855Z,7.40
2018-11-28T11:10:43.566Z,10.00
2018-11-28T11:13:16.285Z,20.10
2018-11-28T11:15:48.859Z,13.10
2018-11-28T11:18:17.261Z,20.40
2018-11-28T11:20:45.389Z,13.60
2018-11-28T11:23:13.690Z,13.23
2018-11-28T11:25:42.154Z,13.40
2018-11-28T11:28:10.608Z,14.33
2018-11-28T11:30:38.978Z,10.57
2018-11-28T11:33:07.288Z,12.17
2018-11-28T11:35:35.695Z,12.13
2018-11-28T11:38:04.175Z,9.70
2018-11-28T11:40:32.530Z,9.97
2018-11-28T11:43:01.058Z,11.57
2018-11-28T11:45:29.401Z,11.77
2018-11-28T11:47:57.512Z,13.47
2018-11-28T11:50:25.471Z,13.00
2018-11-28T11:52:53.947Z,13.70
2018-11-28T12:02:25.975Z,18.10
2018-11-28T12:04:54.373Z,14.77
2018-11-28T12:07:22.853Z,19.67
2018-11-28T12:09:50.941Z,19.03
2018-11-28T12:12:19.262Z,14.20
2018-11-28T12:14:47.618Z,15.77
2018-11-28T12:17:16.197Z,16.60
2018-11-28T12:19:44.598Z,16.17
2018-11-28T12:22:12.980Z,16.87
2018-11-28T12:24:41.350Z,17.87
2018-11-28T12:27:09.677Z,15.37
2018-11-28T12:29:38.062Z,18.33
2018-11-28T12:32:07.296Z,19.23
2018-11-28T12:34:34.630Z,19.20
2018-11-28T12:37:02.976Z,17.37
2018-11-28T12:39:31.066Z,14.57
2018-11-28T12:41:59.148Z,41.10
2018-11-28T12:44:27.289Z,68.83
2018-11-28T12:46:55.786Z,53.27
2018-11-28T12:49:24.176Z,27.83
2018-11-28T12:51:52.550Z,46.03
2018-11-28T12:54:20.599Z,22.50
2018-11-28T12:56:49.086Z,20.77
2018-11-28T12:59:17.460Z,21.83
2018-11-28T13:01:45.751Z,15.93
2018-11-28T13:04:14.082Z,17.30
2018-11-28T13:06:42.476Z,19.03
2018-11-28T13:09:10.958Z,17.90
2018-11-28T13:11:39.176Z,22.57
2018-11-28T13:14:07.530Z,24.33
2018-11-28T13:16:35.962Z,19.33
2018-11-28T13:19:04.303Z,20.40
2018-11-28T13:21:32.647Z,15.70
2018-11-28T13:24:01.032Z,23.13
2018-11-28T13:26:29.393Z,18.77
2018-11-28T13:28:57.750Z,18.10
2018-11-28T13:31:26.108Z,18.40
2018-11-28T13:33:54.565Z,17.97
2018-11-28T13:36:23.025Z,20.10
2018-11-28T13:38:51.405Z,21.90
2018-11-28T13:41:19.727Z,21.90
2018-11-28T13:43:48.160Z,21.13
2018-11-28T13:46:16.611Z,20.33
2018-11-28T13:48:45.009Z,21.55
2018-11-28T13:51:13.437Z,21.07
2018-11-28T13:53:41.749Z,19.00
2018-11-28T13:58:38.461Z,18.45
2018-11-28T14:01:06.934Z,16.40
2018-11-28T14:03:35.326Z,17.57
2018-11-28T14:06:03.324Z,23.30
2018-11-28T14:08:31.711Z,24.33
2018-11-28T14:10:59.791Z,21.57
2018-11-28T14:13:28.193Z,24.67
2018-11-28T14:15:56.673Z,19.47
2018-11-28T14:18:25.125Z,35.78
2018-11-28T14:20:53.199Z,22.63
2018-11-28T14:23:21.565Z,19.42
2018-11-28T14:25:50.003Z,23.35
2018-11-28T14:28:18.346Z,27.07
2018-11-28T14:30:46.728Z,21.85
2018-11-28T14:33:15.130Z,22.95
2018-11-28T14:35:43.132Z,19.23
2018-11-28T14:38:11.316Z,23.75
2018-11-28T14:40:39.379Z,23.02
2018-11-28T14:43:07.762Z,20.30
2018-11-28T14:45:36.518Z,26.52
2018-11-28T14:48:04.606Z,28.02
2018-11-28T14:50:32.671Z,26.07
2018-11-28T14:53:02.258Z,24.10
2018-11-28T14:55:32.919Z,23.45
2018-11-28T14:58:01.866Z,23.70
2018-11-28T15:00:31.919Z,21.10
2018-11-28T15:03:07.120Z,22.55
2018-11-28T15:05:55.680Z,29.37
2018-11-28T15:08:24.205Z,28.73
2018-11-28T15:11:00.946Z,29.10
2018-11-28T15:13:29.346Z,25.80
2018-11-28T15:15:57.708Z,24.18
2018-11-28T15:18:26.116Z,25.27
2018-11-28T15:20:54.482Z,28.15
2018-11-28T15:23:23.007Z,26.17
2018-11-28T15:25:51.492Z,23.85
2018-11-28T15:28:20.016Z,27.35
2018-11-28T15:30:48.385Z,25.32
2018-11-28T15:33:16.737Z,25.23
2018-11-28T15:35:45.095Z,25.88
2018-11-28T15:38:13.451Z,33.83
2018-11-28T15:40:41.889Z,24.50
2018-11-28T15:43:10.332Z,25.23
2018-11-28T15:45:38.664Z,24.20
2018-11-28T15:48:07.272Z,25.62
2018-11-28T15:50:35.588Z,29.77
2018-11-28T15:53:03.674Z,27.82
2018-11-28T15:55:31.758Z,25.40
2018-11-28T15:57:59.907Z,27.45
2018-11-28T16:00:28.219Z,26.82
2018-11-28T16:02:56.556Z,31.62
2018-11-28T16:05:24.771Z,34.65
2018-11-28T16:07:53.123Z,31.97
2018-11-28T16:10:26.942Z,26.48
2018-11-28T16:12:55.339Z,32.65
2018-11-28T16:15:24.106Z,32.53
2018-11-28T16:17:52.545Z,29.35
2018-11-28T16:20:20.756Z,35.58
2018-11-28T16:22:49.158Z,32.23
2018-11-28T16:25:17.629Z,33.92
2018-11-28T16:27:46.241Z,30.23
2018-11-28T16:30:15.754Z,30.12
2018-11-28T16:32:46.088Z,31.70
2018-11-28T16:35:15.516Z,23.45
2018-11-28T16:37:44.015Z,26.97
2018-11-28T16:40:14.329Z,26.75
2018-11-28T16:42:42.891Z,32.70
2018-11-28T16:45:19.059Z,27.52
2018-11-28T16:47:47.998Z,28.90
2018-11-28T16:50:17.034Z,29.65
2018-11-28T16:52:45.626Z,24.72
2018-11-28T16:55:14.371Z,28.98
2018-11-28T16:57:44.918Z,26.42
2018-11-28T17:00:15.278Z,29.48
2018-11-28T17:02:43.621Z,26.80
2018-11-28T17:05:13.284Z,27.85
2018-11-28T17:07:41.453Z,30.68
2018-11-28T17:10:12.261Z,33.15
2018-11-28T17:12:40.614Z,30.27
2018-11-28T17:15:12.487Z,30.10
2018-11-28T17:17:40.958Z,31.33
2018-11-28T17:20:14.022Z,31.57
2018-11-28T17:22:42.562Z,29.98
2018-11-28T17:25:17.871Z,32.65
2018-11-28T17:27:46.322Z,31.07
2018-11-28T17:30:18.802Z,45.38
2018-11-28T17:32:43.860Z,25.40
2018-11-28T17:35:13.818Z,24.80
2018-11-28T17:37:42.983Z,23.92
2018-11-28T17:40:17.368Z,25.77
2018-11-28T17:42:46.969Z,47.00
2018-11-28T17:45:16.311Z,30.05
2018-11-28T17:47:44.706Z,27.93
2018-11-28T17:50:14.330Z,28.55
2018-11-28T17:52:51.313Z,28.62
2018-11-28T17:55:19.690Z,32.17
2018-11-28T17:57:48.149Z,32.38
2018-11-28T18:00:17.483Z,27.45
2018-11-28T18:02:45.808Z,32.42
2018-11-28T18:05:14.204Z,27.65
2018-11-28T18:07:42.546Z,30.62
2018-11-28T18:10:18.829Z,28.80
2018-11-28T18:12:58.403Z,29.98
2018-11-28T18:15:26.732Z,34.03
2018-11-28T18:17:56.143Z,28.77
2018-11-28T18:20:25.582Z,32.17
2018-11-28T18:22:53.923Z,31.85
2018-11-28T18:25:22.389Z,28.52
2018-11-28T18:27:51.066Z,26.33
2018-11-28T18:30:19.113Z,30.00
2018-11-28T18:32:47.225Z,29.90
2018-11-28T18:35:15.641Z,31.77
2018-11-28T18:37:44.077Z,32.40
2018-11-28T18:40:12.934Z,35.45
2018-11-28T18:42:42.410Z,33.83
2018-11-28T18:45:18.362Z,31.02
2018-11-28T18:47:45.612Z,33.78
2018-11-28T18:50:13.850Z,34.73
2018-11-28T18:52:42.222Z,42.50
2018-11-28T18:55:16.616Z,37.03
2018-11-28T18:57:41.304Z,34.13
2018-11-28T19:00:18.630Z,35.52
2018-11-28T19:02:46.958Z,32.63
2018-11-28T19:05:15.308Z,35.55
2018-11-28T19:07:43.687Z,31.15
2018-11-28T19:10:17.095Z,36.30
2018-11-28T19:12:45.466Z,32.40
2018-11-28T19:15:15.855Z,36.85
2018-11-28T19:17:44.621Z,34.03
2018-11-28T19:20:14.005Z,33.80
2018-11-28T19:22:42.847Z,38.40
2018-11-28T19:25:13.072Z,36.42
2018-11-28T19:27:41.339Z,40.05
2018-11-28T19:30:13.654Z,40.38
2018-11-28T19:32:41.918Z,44.80
2018-11-28T19:35:10.975Z,44.10
2018-11-28T19:37:40.049Z,35.28
2018-11-28T19:40:16.901Z,32.70
2018-11-28T19:42:45.139Z,35.05
2018-11-28T19:45:13.354Z,30.77
2018-11-28T19:47:41.332Z,30.25
2018-11-28T19:50:12.516Z,35.05
2018-11-28T19:52:40.785Z,33.30
2018-11-28T19:55:09.515Z,31.10
2018-11-28T19:57:37.516Z,37.58
2018-11-28T20:00:10.204Z,37.20
2018-11-28T20:02:38.385Z,36.73
2018-11-28T20:05:06.620Z,31.20
2018-11-28T20:07:34.979Z,33.45
2018-11-28T20:10:03.251Z,31.65
2018-11-28T20:12:31.417Z,34.53
2018-11-28T20:14:59.733Z,32.30
2018-11-28T20:17:27.874Z,42.65
2018-11-28T20:19:56.062Z,32.75
2018-11-28T20:22:24.254Z,33.67
2018-11-28T20:24:52.475Z,32.98
2018-11-28T20:27:20.659Z,34.98
2018-11-28T20:29:48.875Z,39.00
2018-11-28T20:32:17.081Z,35.28
2018-11-28T20:34:45.234Z,36.65
2018-11-28T20:37:13.443Z,36.38
2018-11-28T20:39:41.627Z,35.80
2018-11-28T20:42:09.824Z,37.28
2018-11-28T20:44:38.007Z,36.00
2018-11-28T20:47:06.209Z,34.55
2018-11-28T20:49:34.189Z,39.73
2018-11-28T20:52:02.154Z,38.10
2018-11-28T20:54:30.321Z,40.63
2018-11-28T20:56:58.524Z,36.55
2018-11-28T20:59:26.681Z,35.20
2018-11-28T21:01:54.918Z,37.83
2018-11-28T21:04:23.078Z,44.50
2018-11-28T21:06:51.294Z,34.08
2018-11-28T21:09:19.463Z,37.05
2018-11-28T21:11:47.755Z,39.35
2018-11-28T21:14:15.984Z,40.90
2018-11-28T21:16:44.193Z,40.52
2018-11-28T21:19:12.472Z,36.60
2018-11-28T21:21:40.727Z,35.50
2018-11-28T21:24:08.907Z,42.43
2018-11-28T21:26:37.126Z,40.38
2018-11-28T21:29:05.407Z,38.65
2018-11-28T21:31:33.645Z,32.60
2018-11-28T21:34:01.814Z,40.63
2018-11-28T21:36:30.201Z,46.95
2018-11-28T21:38:58.460Z,49.58
2018-11-28T21:41:26.826Z,48.42
2018-11-28T21:43:55.214Z,42.98
2018-11-28T21:46:23.286Z,41.25
2018-11-28T21:48:57.790Z,45.83
2018-11-28T21:51:25.893Z,43.70
2018-11-28T21:53:54.018Z,48.25
2018-11-28T21:56:22.416Z,41.08
2018-11-28T21:58:50.600Z,51.37
2018-11-28T22:01:18.764Z,51.13
2018-11-28T22:03:46.994Z,50.63
2018-11-28T22:06:15.263Z,51.98
2018-11-28T22:08:43.445Z,49.65
2018-11-28T22:11:11.689Z,51.08
2018-11-28T22:13:39.877Z,47.10
2018-11-28T22:16:08.094Z,46.35
2018-11-28T22:18:36.340Z,59.95
2018-11-28T22:21:05.149Z,44.85
2018-11-28T22:23:33.329Z,40.92
2018-11-28T22:26:01.505Z,52.25
2018-11-28T22:28:29.764Z,49.10
2018-11-28T22:30:57.932Z,48.40
2018-11-28T22:33:26.125Z,46.05
2018-11-28T22:35:54.425Z,45.30
2018-11-28T22:38:22.682Z,44.53
2018-11-28T22:40:50.955Z,45.85
2018-11-28T22:43:19.204Z,61.77
2018-11-28T22:45:47.453Z,63.10
2018-11-28T22:48:15.737Z,61.15
2018-11-28T22:50:43.734Z,94.77
2018-11-28T22:53:11.742Z,68.85
2018-11-28T22:55:39.740Z,51.35
2018-11-28T22:58:08.026Z,55.70
2018-11-28T23:00:41.685Z,50.05
2018-11-28T23:03:10.627Z,56.15
2018-11-28T23:05:45.972Z,68.45
2018-11-28T23:08:15.422Z,129.80
2018-11-28T23:10:43.735Z,66.53
2018-11-28T23:13:13.907Z,146.77
2018-11-28T23:15:42.236Z,112.47
2018-11-28T23:18:11.056Z,132.65
2018-11-28T23:20:39.347Z,339.17
2018-11-28T23:23:08.414Z,55.45
2018-11-28T23:25:37.276Z,76.25
2018-11-28T23:28:05.938Z,70.95
2018-11-28T23:30:34.208Z,63.83
2018-11-28T23:33:02.948Z,83.10
2018-11-28T23:35:31.450Z,65.72
2018-11-28T23:38:00.049Z,63.52
2018-11-28T23:40:28.303Z,65.12
2018-11-28T23:42:56.712Z,157.67
2018-11-28T23:45:25.716Z,134.52
2018-11-28T23:47:54.290Z,157.93
2018-11-28T23:50:23.353Z,124.40
2018-11-28T23:52:52.441Z,190.90
2018-11-28T23:55:22.658Z,129.70
2018-11-28T23:57:50.741Z,155.37
